Time;durP1;ratioP1;P1;durP2;ratioP2;P2;SDS_P1;SDS_P2;PMS_P1;PMS_P2;Temp;Humidity;BMP_temperature;BMP_pressure;BME280_temperature;BME280_humidity;BME280_pressure;Samples;Min_cycle;Max_cycle;Signal;HPM_P1;HPM_P2
2023/09/08 00:00:32;;;;;;;18.95;4.47;;;;;;;;;;4992447;28;20422;-76
2023/09/08 00:03:02;;;;;;;21.27;4.78;;;;;;;;;;4991972;28;20427;-77
2023/09/08 00:05:30;;;;;;;17.02;3.92;;;;;;;;;;4990529;28;20414;-77
2023/09/08 00:08:04;;;;;;;18.83;4.90;;;;;;;;;;5024492;28;20898;-77
2023/09/08 00:10:31;;;;;;;22.60;4.57;;;;;;;;;;4991651;28;20414;-75
2023/09/08 00:13:01;;;;;;;17.60;4.28;;;;;;;;;;4980380;28;20411;-76
2023/09/08 00:15:29;;;;;;;17.98;4.65;;;;;;;;;;4979215;28;20428;-76
2023/09/08 00:18:11;;;;;;;18.52;4.75;;;;;;;;;;4990067;28;20420;-76
2023/09/08 00:20:38;;;;;;;17.70;3.90;;;;;;;;;;4980559;28;20410;-76
2023/09/08 00:23:07;;;;;;;21.43;4.80;;;;;;;;;;4997095;28;20402;-76
2023/09/08 00:25:35;;;;;;;17.52;3.97;;;;;;;;;;4991649;28;20430;-77
2023/09/08 00:28:04;;;;;;;17.45;3.92;;;;;;;;;;4992304;28;20436;-77
2023/09/08 00:30:34;;;;;;;17.70;4.30;;;;;;;;;;5009297;28;20424;-77
2023/09/08 00:33:08;;;;;;;17.55;3.80;;;;;;;;;;4979134;28;20506;-76
2023/09/08 00:35:38;;;;;;;19.20;3.85;;;;;;;;;;4995848;28;20410;-76
2023/09/08 00:38:08;;;;;;;17.17;4.40;;;;;;;;;;5011270;28;20422;-76
2023/09/08 00:40:40;;;;;;;17.75;3.95;;;;;;;;;;4992514;28;20478;-76
2023/09/08 00:43:07;;;;;;;18.35;4.40;;;;;;;;;;5008514;28;20797;-77
2023/09/08 00:45:36;;;;;;;18.98;4.68;;;;;;;;;;5025532;28;20504;-75
2023/09/08 00:48:07;;;;;;;17.98;4.45;;;;;;;;;;4992715;28;20414;-76
2023/09/08 00:50:38;;;;;;;16.60;3.88;;;;;;;;;;4996553;28;20402;-77
2023/09/08 00:53:08;;;;;;;19.05;4.30;;;;;;;;;;4994998;28;20417;-75
2023/09/08 00:55:38;;;;;;;17.17;4.20;;;;;;;;;;4988509;28;20408;-76
2023/09/08 00:58:09;;;;;;;17.70;3.85;;;;;;;;;;4977037;28;20765;-76
2023/09/08 01:00:37;;;;;;;18.67;4.60;;;;;;;;;;4976832;28;20422;-76
2023/09/08 01:03:05;;;;;;;18.80;4.53;;;;;;;;;;4976700;28;20426;-76
2023/09/08 01:05:36;;;;;;;19.30;4.20;;;;;;;;;;5016077;28;20422;-76
2023/09/08 01:08:09;;;;;;;18.02;4.47;;;;;;;;;;5010432;28;20485;-76
2023/09/08 01:10:37;;;;;;;19.20;4.22;;;;;;;;;;4996729;28;20420;-76
2023/09/08 01:13:07;;;;;;;18.23;4.63;;;;;;;;;;4993367;28;20411;-77
2023/09/08 01:15:34;;;;;;;18.40;4.22;;;;;;;;;;4981435;28;20412;-76
2023/09/08 01:18:04;;;;;;;18.00;4.45;;;;;;;;;;4975328;28;20412;-75
2023/09/08 01:20:40;;;;;;;19.50;5.13;;;;;;;;;;4979305;28;20770;-76
2023/09/08 01:23:16;;;;;;;18.65;4.20;;;;;;;;;;4975222;28;20789;-76
2023/09/08 01:25:46;;;;;;;17.60;4.30;;;;;;;;;;4975010;28;20436;-76
2023/09/08 01:28:13;;;;;;;17.70;4.70;;;;;;;;;;4994628;28;20549;-76
2023/09/08 01:30:40;;;;;;;19.75;3.97;;;;;;;;;;4993471;28;20450;-76
2023/09/08 01:33:08;;;;;;;17.90;4.10;;;;;;;;;;4994509;28;20411;-76
2023/09/08 01:35:38;;;;;;;18.20;4.20;;;;;;;;;;4995685;28;20398;-76
2023/09/08 01:38:06;;;;;;;17.65;4.03;;;;;;;;;;4979917;28;20424;-76
2023/09/08 01:40:36;;;;;;;17.38;4.30;;;;;;;;;;4984670;28;20879;-76
2023/09/08 01:43:07;;;;;;;17.52;3.88;;;;;;;;;;4994228;28;20516;-76
2023/09/08 01:45:35;;;;;;;18.90;4.25;;;;;;;;;;5014322;28;20424;-76
2023/09/08 01:48:07;;;;;;;18.00;4.20;;;;;;;;;;5001328;28;20417;-76
2023/09/08 01:50:38;;;;;;;18.77;5.30;;;;;;;;;;5009727;28;20784;-76
2023/09/08 01:53:06;;;;;;;17.38;4.00;;;;;;;;;;4976613;28;20411;-76
2023/09/08 01:55:36;;;;;;;17.15;4.32;;;;;;;;;;5023108;28;20469;-76
2023/09/08 01:58:23;;;;;;;18.30;4.95;;;;;;;;;;4990834;28;20424;-76
2023/09/08 02:00:52;;;;;;;19.80;4.20;;;;;;;;;;5018258;28;20421;-76
2023/09/08 02:03:20;;;;;;;17.95;4.07;;;;;;;;;;4994721;28;20425;-76
2023/09/08 02:05:48;;;;;;;17.80;4.30;;;;;;;;;;4981952;28;20424;-76
2023/09/08 02:08:14;;;;;;;17.48;4.50;;;;;;;;;;4982722;28;20416;-76
2023/09/08 02:10:44;;;;;;;18.30;4.88;;;;;;;;;;4978364;28;20431;-77
2023/09/08 02:13:13;;;;;;;19.50;4.60;;;;;;;;;;4984156;28;20803;-76
2023/09/08 02:15:43;;;;;;;19.17;3.90;;;;;;;;;;4976603;28;20415;-76
2023/09/08 02:18:11;;;;;;;18.45;4.22;;;;;;;;;;4985268;28;20408;-76
2023/09/08 02:20:39;;;;;;;17.85;4.20;;;;;;;;;;4992414;28;20769;-77
2023/09/08 02:23:08;;;;;;;19.40;4.30;;;;;;;;;;4980812;28;21008;-76
2023/09/08 02:25:39;;;;;;;18.23;3.90;;;;;;;;;;4988074;28;20425;-76
2023/09/08 02:28:06;;;;;;;19.50;4.53;;;;;;;;;;4992968;28;20838;-76
2023/09/08 02:30:35;;;;;;;17.85;4.25;;;;;;;;;;4982810;28;20510;-76
2023/09/08 02:33:11;;;;;;;20.00;4.40;;;;;;;;;;4993060;28;20430;-76
2023/09/08 02:35:39;;;;;;;18.10;4.60;;;;;;;;;;4986578;28;20495;-76
2023/09/08 02:38:08;;;;;;;18.20;4.95;;;;;;;;;;4985976;28;20418;-76
2023/09/08 02:40:36;;;;;;;18.02;4.20;;;;;;;;;;5017657;28;20418;-77
2023/09/08 02:43:04;;;;;;;18.17;4.32;;;;;;;;;;4973275;28;20477;-75
2023/09/08 02:45:33;;;;;;;18.40;4.80;;;;;;;;;;4994565;28;20430;-75
2023/09/08 02:48:04;;;;;;;18.67;4.63;;;;;;;;;;4990245;28;20474;-76
2023/09/08 02:50:36;;;;;;;19.30;4.70;;;;;;;;;;4977839;28;21107;-76
2023/09/08 02:53:03;;;;;;;18.10;4.60;;;;;;;;;;4991589;28;20891;-76
2023/09/08 02:55:33;;;;;;;20.20;4.70;;;;;;;;;;4983086;28;20514;-76
2023/09/08 02:58:06;;;;;;;17.20;4.07;;;;;;;;;;4983664;28;20471;-76
2023/09/08 03:00:38;;;;;;;18.05;4.70;;;;;;;;;;4973751;28;20933;-76
2023/09/08 03:03:07;;;;;;;18.42;5.13;;;;;;;;;;5005875;28;20530;-77
2023/09/08 03:05:36;;;;;;;18.25;4.45;;;;;;;;;;4990465;28;20424;-75
2023/09/08 03:08:06;;;;;;;18.55;4.50;;;;;;;;;;4984105;28;20416;-76
2023/09/08 03:10:36;;;;;;;18.63;5.20;;;;;;;;;;4992849;28;20461;-76
2023/09/08 03:13:04;;;;;;;18.38;4.55;;;;;;;;;;4992660;28;20911;-76
2023/09/08 03:15:34;;;;;;;18.52;4.43;;;;;;;;;;4994124;28;20414;-76
2023/09/08 03:18:05;;;;;;;19.55;4.70;;;;;;;;;;4990054;28;20410;-77
2023/09/08 03:20:36;;;;;;;18.40;4.70;;;;;;;;;;4986592;28;20467;-77
2023/09/08 03:23:10;;;;;;;20.40;4.67;;;;;;;;;;5005953;28;20525;-76
2023/09/08 03:25:43;;;;;;;18.05;4.63;;;;;;;;;;4984924;28;20785;-76
2023/09/08 03:28:09;;;;;;;18.60;4.50;;;;;;;;;;4972970;28;20404;-76
2023/09/08 03:30:41;;;;;;;18.80;5.03;;;;;;;;;;4974812;28;20416;-76
2023/09/08 03:33:11;;;;;;;19.13;5.00;;;;;;;;;;4974031;28;20414;-76
2023/09/08 03:35:44;;;;;;;18.52;4.90;;;;;;;;;;4979292;28;20398;-76
2023/09/08 03:38:13;;;;;;;19.80;4.60;;;;;;;;;;4985508;28;20413;-76
2023/09/08 03:40:45;;;;;;;18.75;4.38;;;;;;;;;;4994203;28;20505;-77
2023/09/08 03:43:12;;;;;;;17.85;4.53;;;;;;;;;;4988922;28;20431;-76
2023/09/08 03:45:39;;;;;;;19.27;4.80;;;;;;;;;;4972634;28;20428;-77
2023/09/08 03:48:09;;;;;;;18.27;4.82;;;;;;;;;;5005826;28;20924;-77
2023/09/08 03:50:41;;;;;;;18.57;4.47;;;;;;;;;;4992458;28;20402;-76
2023/09/08 03:53:13;;;;;;;19.40;4.82;;;;;;;;;;4998122;28;20416;-76
2023/09/08 03:55:54;;;;;;;18.20;4.65;;;;;;;;;;5010538;28;20426;-77
2023/09/08 03:58:24;;;;;;;20.05;5.10;;;;;;;;;;4991573;28;20430;-77
2023/09/08 04:00:55;;;;;;;17.70;4.57;;;;;;;;;;4975304;28;20412;-77
2023/09/08 04:03:25;;;;;;;18.80;4.30;;;;;;;;;;4990994;28;20756;-77
2023/09/08 04:05:52;;;;;;;19.77;4.90;;;;;;;;;;4976457;28;20931;-76
2023/09/08 04:08:24;;;;;;;19.27;4.13;;;;;;;;;;4973259;28;20430;-76
2023/09/08 04:10:51;;;;;;;19.90;4.45;;;;;;;;;;5014586;28;20431;-75
2023/09/08 04:13:19;;;;;;;19.88;4.97;;;;;;;;;;4982081;28;20418;-76
2023/09/08 04:15:49;;;;;;;18.15;4.53;;;;;;;;;;4984598;28;20412;-76
2023/09/08 04:18:16;;;;;;;19.00;4.90;;;;;;;;;;4988411;28;20502;-76
2023/09/08 04:20:44;;;;;;;19.58;4.93;;;;;;;;;;4972434;28;20474;-76
2023/09/08 04:23:14;;;;;;;18.60;5.07;;;;;;;;;;4979409;28;20477;-77
2023/09/08 04:25:48;;;;;;;19.70;4.38;;;;;;;;;;4977130;28;20785;-76
2023/09/08 04:28:18;;;;;;;17.80;4.28;;;;;;;;;;4981229;28;20426;-76
2023/09/08 04:30:46;;;;;;;20.48;5.30;;;;;;;;;;5004295;28;20431;-76
2023/09/08 04:33:13;;;;;;;18.25;4.10;;;;;;;;;;4972188;28;20404;-76
2023/09/08 04:35:43;;;;;;;19.15;4.65;;;;;;;;;;4956508;28;20435;-76
2023/09/08 04:38:11;;;;;;;18.30;4.30;;;;;;;;;;5014074;28;20435;-76
2023/09/08 04:40:41;;;;;;;17.23;4.20;;;;;;;;;;5004465;28;20934;-76
2023/09/08 04:43:10;;;;;;;18.10;3.93;;;;;;;;;;4972407;28;20411;-76
2023/09/08 04:45:38;;;;;;;19.75;4.65;;;;;;;;;;4995714;28;20427;-76
2023/09/08 04:48:07;;;;;;;18.15;4.30;;;;;;;;;;4985770;28;20501;-77
2023/09/08 04:50:34;;;;;;;18.60;4.10;;;;;;;;;;4987233;28;20835;-76
2023/09/08 04:53:05;;;;;;;21.10;4.20;;;;;;;;;;5006739;28;20426;-78
2023/09/08 04:55:43;;;;;;;17.40;4.07;;;;;;;;;;4987986;28;20475;-76
2023/09/08 04:58:13;;;;;;;17.77;4.43;;;;;;;;;;4978708;28;20420;-76
2023/09/08 05:00:40;;;;;;;18.13;4.70;;;;;;;;;;4980270;28;20419;-77
2023/09/08 05:03:08;;;;;;;17.33;4.00;;;;;;;;;;4992272;28;20469;-76
2023/09/08 05:05:35;;;;;;;18.30;4.10;;;;;;;;;;5018351;28;20432;-75
2023/09/08 05:08:04;;;;;;;18.80;4.22;;;;;;;;;;4964131;28;20481;-77
2023/09/08 05:10:34;;;;;;;18.30;4.28;;;;;;;;;;4990801;28;20917;-77
2023/09/08 05:13:04;;;;;;;17.75;4.28;;;;;;;;;;4979775;28;20414;-76
2023/09/08 05:15:48;;;;;;;18.27;4.10;;;;;;;;;;4995113;28;20430;-76
2023/09/08 05:18:15;;;;;;;17.00;3.78;;;;;;;;;;4995195;28;20449;-75
2023/09/08 05:20:43;;;;;;;17.90;4.07;;;;;;;;;;4990973;28;20483;-77
2023/09/08 05:23:12;;;;;;;18.35;4.05;;;;;;;;;;4981999;28;21021;-74
2023/09/08 05:25:47;;;;;;;18.33;4.27;;;;;;;;;;4960234;28;20427;-76
2023/09/08 05:28:17;;;;;;;18.65;3.78;;;;;;;;;;4993547;28;20910;-76
2023/09/08 05:30:55;;;;;;;19.07;4.03;;;;;;;;;;4978120;28;20464;-76
2023/09/08 05:33:25;;;;;;;17.80;4.50;;;;;;;;;;4994000;28;20553;-77
2023/09/08 05:35:53;;;;;;;17.38;4.00;;;;;;;;;;4975235;28;20427;-77
2023/09/08 05:53:56;;;;;;;19.80;4.10;;;;;;;;;;4985760;28;20358;-78
2023/09/08 05:56:24;;;;;;;17.40;3.75;;;;;;;;;;4992381;28;20416;-74
2023/09/08 05:58:53;;;;;;;18.77;4.10;;;;;;;;;;4994104;28;20435;-76
2023/09/08 06:01:20;;;;;;;17.55;3.80;;;;;;;;;;4990064;28;20404;-75
2023/09/08 06:03:57;;;;;;;17.58;3.70;;;;;;;;;;4990609;28;20490;-76
2023/09/08 06:06:28;;;;;;;18.00;4.00;;;;;;;;;;4992314;28;20459;-75
2023/09/08 06:09:06;;;;;;;16.45;3.35;;;;;;;;;;4966391;28;20414;-76
2023/09/08 06:11:37;;;;;;;16.67;3.58;;;;;;;;;;4975793;28;20422;-75
2023/09/08 06:14:07;;;;;;;17.33;3.92;;;;;;;;;;4974766;28;20419;-76
2023/09/08 06:16:39;;;;;;;25.23;3.77;;;;;;;;;;4991799;28;20497;-75
2023/09/08 06:19:09;;;;;;;17.02;3.78;;;;;;;;;;5024319;28;20426;-76
2023/09/08 06:21:36;;;;;;;18.75;4.40;;;;;;;;;;4993383;28;20415;-74
2023/09/08 06:24:08;;;;;;;19.30;4.10;;;;;;;;;;4993373;28;20831;-74
2023/09/08 06:26:39;;;;;;;17.60;3.90;;;;;;;;;;4993330;28;20430;-75
2023/09/08 06:29:09;;;;;;;16.85;3.72;;;;;;;;;;4992555;28;20859;-76
2023/09/08 06:31:38;;;;;;;18.35;3.92;;;;;;;;;;4986650;28;20415;-78
2023/09/08 06:34:05;;;;;;;17.67;4.45;;;;;;;;;;4958591;28;20412;-77
2023/09/08 06:36:36;;;;;;;17.30;3.33;;;;;;;;;;4973485;28;20447;-75
2023/09/08 06:39:04;;;;;;;17.10;3.58;;;;;;;;;;4985408;28;20439;-76
2023/09/08 06:41:33;;;;;;;16.73;3.60;;;;;;;;;;4974395;28;20455;-76
2023/09/08 06:44:06;;;;;;;17.33;3.78;;;;;;;;;;4977009;28;20505;-76
2023/09/08 06:46:37;;;;;;;18.37;3.40;;;;;;;;;;4985189;28;20425;-76
2023/09/08 06:49:06;;;;;;;17.60;3.60;;;;;;;;;;4989545;28;20765;-76
2023/09/08 06:51:33;;;;;;;18.50;3.40;;;;;;;;;;4973572;28;20499;-76
2023/09/08 06:54:03;;;;;;;18.48;3.33;;;;;;;;;;4973259;28;20792;-76
2023/09/08 06:56:46;;;;;;;18.15;3.80;;;;;;;;;;4973276;28;20778;-75
2023/09/08 06:59:13;;;;;;;17.30;3.40;;;;;;;;;;4986825;28;20412;-76
2023/09/08 07:01:42;;;;;;;17.00;3.90;;;;;;;;;;4991632;28;20457;-76
2023/09/08 07:04:12;;;;;;;18.02;3.50;;;;;;;;;;4994107;28;20803;-76
2023/09/08 07:06:44;;;;;;;17.67;3.67;;;;;;;;;;4989041;28;20433;-75
2023/09/08 07:09:18;;;;;;;16.20;3.60;;;;;;;;;;5005594;28;21021;-76
2023/09/08 07:11:47;;;;;;;17.70;3.60;;;;;;;;;;4983769;28;20424;-76
2023/09/08 07:14:16;;;;;;;18.52;3.90;;;;;;;;;;4988403;28;20462;-75
2023/09/08 07:16:45;;;;;;;18.45;3.50;;;;;;;;;;4976265;28;20420;-76
2023/09/08 07:19:12;;;;;;;19.33;3.83;;;;;;;;;;4992208;28;20422;-76
2023/09/08 07:21:40;;;;;;;16.42;3.45;;;;;;;;;;4988831;28;20507;-75
2023/09/08 07:24:07;;;;;;;16.90;3.40;;;;;;;;;;4988639;28;20424;-75
2023/09/08 07:26:37;;;;;;;16.75;3.53;;;;;;;;;;4971798;28;20465;-76
2023/09/08 07:29:06;;;;;;;19.98;3.40;;;;;;;;;;4992016;28;20442;-76
2023/09/08 07:31:33;;;;;;;16.00;3.10;;;;;;;;;;4977241;28;20414;-76
2023/09/08 07:34:00;;;;;;;18.27;3.03;;;;;;;;;;4988575;28;20437;-76
2023/09/08 07:36:27;;;;;;;16.10;2.90;;;;;;;;;;4993477;28;20406;-76
2023/09/08 07:38:54;;;;;;;17.55;3.60;;;;;;;;;;4996456;28;20428;-77
2023/09/08 07:41:22;;;;;;;17.70;3.45;;;;;;;;;;4975662;28;20507;-77
2023/09/08 07:43:50;;;;;;;16.10;3.10;;;;;;;;;;4987446;28;20551;-77
2023/09/08 07:46:23;;;;;;;16.20;3.30;;;;;;;;;;5014908;28;20493;-76
2023/09/08 07:48:54;;;;;;;17.00;3.00;;;;;;;;;;4988574;28;20498;-78
2023/09/08 07:51:26;;;;;;;16.83;3.47;;;;;;;;;;4974409;28;20420;-76
2023/09/08 07:54:07;;;;;;;17.58;3.55;;;;;;;;;;4980682;28;20467;-78
2023/09/08 07:56:34;;;;;;;17.75;3.15;;;;;;;;;;4985123;28;20979;-77
2023/09/08 07:59:09;;;;;;;17.40;3.28;;;;;;;;;;4991094;28;20418;-77
2023/09/08 08:01:39;;;;;;;16.73;3.70;;;;;;;;;;4983799;28;20414;-77
2023/09/08 08:04:08;;;;;;;16.40;3.57;;;;;;;;;;4961983;28;20905;-77
2023/09/08 08:06:44;;;;;;;18.00;3.67;;;;;;;;;;4988178;28;20436;-76
2023/09/08 08:09:14;;;;;;;16.55;3.25;;;;;;;;;;4975605;28;20519;-77
2023/09/08 08:11:41;;;;;;;17.52;3.20;;;;;;;;;;4991473;28;20414;-78
2023/09/08 08:14:16;;;;;;;17.30;3.50;;;;;;;;;;4982536;28;20419;-78
2023/09/08 08:16:54;;;;;;;16.23;3.10;;;;;;;;;;4985549;28;20571;-79
2023/09/08 08:19:22;;;;;;;16.10;3.10;;;;;;;;;;4982600;28;20503;-78
2023/09/08 08:21:53;;;;;;;17.20;3.25;;;;;;;;;;4977013;28;20450;-78
2023/09/08 08:24:21;;;;;;;19.83;3.97;;;;;;;;;;4984430;28;20859;-80
2023/09/08 08:26:51;;;;;;;18.20;3.90;;;;;;;;;;4977953;28;20920;-78
2023/09/08 08:29:19;;;;;;;16.17;3.00;;;;;;;;;;4981519;28;20412;-79
2023/09/08 08:31:49;;;;;;;16.10;3.03;;;;;;;;;;5013457;28;20418;-77
2023/09/08 08:34:19;;;;;;;16.17;3.50;;;;;;;;;;4991141;28;20928;-76
2023/09/08 08:36:47;;;;;;;16.75;3.60;;;;;;;;;;5019873;28;20417;-78
2023/09/08 08:39:17;;;;;;;15.90;3.20;;;;;;;;;;4986761;28;20811;-77
2023/09/08 08:41:45;;;;;;;17.00;3.70;;;;;;;;;;4994542;28;20422;-77
2023/09/08 08:44:14;;;;;;;18.00;3.40;;;;;;;;;;4991655;28;20776;-74
2023/09/08 08:46:43;;;;;;;16.50;3.67;;;;;;;;;;4988964;28;20731;-76
2023/09/08 08:49:14;;;;;;;16.02;3.15;;;;;;;;;;4995089;28;20484;-76
2023/09/08 08:51:42;;;;;;;15.90;3.00;;;;;;;;;;4985332;28;20406;-77
2023/09/08 08:54:11;;;;;;;15.60;3.00;;;;;;;;;;4982008;28;20474;-77
2023/09/08 08:56:46;;;;;;;15.98;2.92;;;;;;;;;;4990212;28;20989;-77
2023/09/08 08:59:13;;;;;;;15.60;3.10;;;;;;;;;;4991582;28;20412;-76
2023/09/08 09:01:41;;;;;;;16.88;3.70;;;;;;;;;;4975255;28;20515;-76
2023/09/08 09:04:10;;;;;;;17.48;3.20;;;;;;;;;;4992462;28;20445;-76
2023/09/08 09:06:38;;;;;;;16.25;2.97;;;;;;;;;;4976114;28;20438;-78
2023/09/08 09:09:07;;;;;;;16.17;3.10;;;;;;;;;;4975147;28;20419;-76
2023/09/08 09:11:36;;;;;;;17.73;3.20;;;;;;;;;;4982014;28;20504;-77
2023/09/08 09:14:08;;;;;;;16.77;3.30;;;;;;;;;;4995922;28;20887;-78
2023/09/08 09:16:40;;;;;;;19.80;3.15;;;;;;;;;;5017631;28;20472;-77
2023/09/08 09:19:10;;;;;;;19.05;3.30;;;;;;;;;;4991245;28;20438;-76
2023/09/08 09:21:43;;;;;;;15.95;3.22;;;;;;;;;;4992412;28;20885;-76
2023/09/08 09:24:15;;;;;;;16.77;3.30;;;;;;;;;;4985200;28;20420;-76
2023/09/08 09:26:45;;;;;;;15.70;3.00;;;;;;;;;;4988297;28;20423;-76
2023/09/08 09:29:16;;;;;;;17.40;3.40;;;;;;;;;;4982365;28;20857;-76
2023/09/08 09:31:53;;;;;;;16.38;3.30;;;;;;;;;;4986431;28;20422;-76
2023/09/08 09:34:20;;;;;;;16.60;3.00;;;;;;;;;;5006859;28;20845;-77
2023/09/08 09:36:49;;;;;;;16.33;3.10;;;;;;;;;;4981808;28;20418;-75
2023/09/08 09:39:18;;;;;;;19.75;3.25;;;;;;;;;;5019183;28;20428;-77
2023/09/08 09:41:46;;;;;;;17.33;3.30;;;;;;;;;;4978571;28;20526;-76
2023/09/08 09:44:14;;;;;;;15.48;2.92;;;;;;;;;;4995820;28;20406;-75
2023/09/08 09:46:45;;;;;;;16.70;3.60;;;;;;;;;;4980114;28;20408;-76
2023/09/08 09:49:13;;;;;;;16.08;2.90;;;;;;;;;;4992944;28;20421;-76
2023/09/08 09:51:42;;;;;;;17.10;2.90;;;;;;;;;;4995199;28;20415;-77
2023/09/08 09:54:10;;;;;;;16.30;2.87;;;;;;;;;;4994314;28;20481;-76
2023/09/08 09:56:41;;;;;;;15.60;3.03;;;;;;;;;;4992283;28;20941;-76
2023/09/08 09:59:12;;;;;;;16.05;3.40;;;;;;;;;;4976039;28;20431;-76
2023/09/08 10:01:43;;;;;;;16.20;3.40;;;;;;;;;;4993438;28;20421;-75
2023/09/08 10:04:15;;;;;;;16.20;3.33;;;;;;;;;;4981443;28;20510;-76
2023/09/08 10:06:44;;;;;;;16.60;3.40;;;;;;;;;;4982214;28;20416;-76
2023/09/08 10:09:19;;;;;;;16.10;3.40;;;;;;;;;;5007145;28;20887;-76
2023/09/08 10:11:47;;;;;;;16.60;2.93;;;;;;;;;;4982408;28;20414;-76
2023/09/08 10:14:17;;;;;;;16.13;3.30;;;;;;;;;;5012555;28;20482;-75
2023/09/08 10:16:49;;;;;;;15.90;3.20;;;;;;;;;;4991308;28;20461;-76
2023/09/08 10:19:16;;;;;;;17.48;3.40;;;;;;;;;;4994497;28;20406;-75
2023/09/08 10:21:48;;;;;;;15.90;3.40;;;;;;;;;;4991484;28;20410;-76
2023/09/08 10:24:18;;;;;;;15.98;3.08;;;;;;;;;;4989304;28;20871;-76
2023/09/08 10:26:49;;;;;;;16.90;3.60;;;;;;;;;;4994391;28;20883;-76
2023/09/08 10:29:16;;;;;;;17.50;3.20;;;;;;;;;;4976250;28;20422;-75
2023/09/08 10:31:43;;;;;;;17.77;3.60;;;;;;;;;;4992873;28;20899;-77
2023/09/08 10:34:13;;;;;;;17.70;3.60;;;;;;;;;;4993330;28;20421;-77
2023/09/08 10:36:45;;;;;;;15.80;3.50;;;;;;;;;;4982154;28;20420;-76
2023/09/08 10:39:32;;;;;;;17.90;3.20;;;;;;;;;;4975335;28;20452;-75
2023/09/08 10:42:21;;;;;;;15.55;3.10;;;;;;;;;;4972977;28;20420;-74
2023/09/08 10:45:04;;;;;;;17.20;3.70;;;;;;;;;;4984145;28;20416;-75
2023/09/08 10:47:31;;;;;;;15.93;3.50;;;;;;;;;;4994392;28;20439;-75
2023/09/08 10:50:00;;;;;;;15.90;3.55;;;;;;;;;;4987181;28;20488;-75
2023/09/08 10:52:27;;;;;;;17.00;3.10;;;;;;;;;;4978636;28;20543;-75
2023/09/08 10:54:55;;;;;;;16.23;3.40;;;;;;;;;;5014681;28;20445;-75
2023/09/08 10:57:23;;;;;;;16.40;3.50;;;;;;;;;;4988051;28;20519;-75
2023/09/08 10:59:52;;;;;;;17.05;3.80;;;;;;;;;;4975643;28;20479;-75
2023/09/08 11:02:37;;;;;;;16.85;3.45;;;;;;;;;;4992241;28;20425;-75
2023/09/08 11:05:34;;;;;;;17.58;3.67;;;;;;;;;;4984664;28;20742;-77
2023/09/08 11:08:03;;;;;;;17.10;3.60;;;;;;;;;;5011793;28;20429;-75
2023/09/08 11:10:32;;;;;;;17.33;3.37;;;;;;;;;;4989366;28;20435;-77
2023/09/08 11:12:59;;;;;;;17.65;3.30;;;;;;;;;;4983782;28;20414;-75
2023/09/08 11:15:27;;;;;;;17.00;3.30;;;;;;;;;;4991839;28;20461;-76
2023/09/08 11:17:56;;;;;;;16.15;3.38;;;;;;;;;;5010663;28;20474;-75
2023/09/08 11:20:27;;;;;;;16.50;3.30;;;;;;;;;;4990488;28;20455;-75
2023/09/08 11:22:55;;;;;;;16.55;3.55;;;;;;;;;;4985322;28;20424;-75
2023/09/08 11:25:25;;;;;;;15.70;3.20;;;;;;;;;;4976476;28;20475;-77
2023/09/08 11:27:55;;;;;;;16.17;3.60;;;;;;;;;;4981526;28;20422;-76
2023/09/08 11:30:24;;;;;;;16.48;3.50;;;;;;;;;;4976358;28;20489;-75
2023/09/08 11:32:52;;;;;;;16.05;3.25;;;;;;;;;;4981203;28;20802;-75
2023/09/08 11:35:20;;;;;;;17.10;3.78;;;;;;;;;;4975227;28;20447;-77
2023/09/08 11:37:49;;;;;;;17.35;3.65;;;;;;;;;;4983657;28;20406;-75
2023/09/08 11:40:16;;;;;;;17.10;3.40;;;;;;;;;;4981178;28;20442;-75
2023/09/08 11:42:47;;;;;;;;;;;;;;;;;;4993637;28;20392;-76
2023/09/08 11:45:20;;;;;;;;;;;;;;;;;;4986673;28;19926;-74
2023/09/08 11:47:46;;;;;;;;;;;;;;;;;;5017022;28;19922;-75
2023/09/08 11:50:15;;;;;;;14.47;3.13;;;;;;;;;;4987710;28;20205;-76
2023/09/08 11:52:45;;;;;;;18.55;3.47;;;;;;;;;;4983949;28;20410;-74
2023/09/08 11:55:12;;;;;;;15.73;3.33;;;;;;;;;;4987434;28;20408;-75
2023/09/08 11:57:40;;;;;;;15.30;3.20;;;;;;;;;;4977518;28;20421;-76
2023/09/08 12:00:09;;;;;;;16.40;3.33;;;;;;;;;;4973977;28;20412;-77
2023/09/08 12:02:36;;;;;;;17.00;3.60;;;;;;;;;;4978073;28;20424;-75
2023/09/08 12:05:05;;;;;;;16.95;3.47;;;;;;;;;;4991452;28;20426;-77
2023/09/08 12:07:37;;;;;;;16.70;3.90;;;;;;;;;;4989137;28;20897;-76
2023/09/08 12:10:10;;;;;;;18.07;3.50;;;;;;;;;;4990327;28;20406;-76
2023/09/08 12:12:44;;;;;;;20.83;4.00;;;;;;;;;;4976163;28;20420;-76
2023/09/08 12:15:11;;;;;;;16.70;3.33;;;;;;;;;;4981819;28;20467;-81
2023/09/08 12:17:49;;;;;;;16.30;3.47;;;;;;;;;;5022514;28;20414;-75
2023/09/08 12:20:17;;;;;;;17.50;3.40;;;;;;;;;;4986979;28;20419;-75
2023/09/08 12:22:49;;;;;;;16.50;3.67;;;;;;;;;;5007138;28;20424;-76
2023/09/08 12:25:17;;;;;;;16.27;3.80;;;;;;;;;;4998161;28;20442;-75
2023/09/08 12:27:49;;;;;;;17.27;4.22;;;;;;;;;;4981757;28;20912;-76
2023/09/08 12:30:17;;;;;;;16.60;3.70;;;;;;;;;;4978492;28;20600;-75
2023/09/08 12:32:45;;;;;;;16.25;3.50;;;;;;;;;;4986805;28;20415;-77
2023/09/08 12:35:22;;;;;;;16.52;3.60;;;;;;;;;;4974842;28;20426;-77
2023/09/08 12:37:54;;;;;;;15.80;3.10;;;;;;;;;;5012832;28;20414;-76
2023/09/08 12:40:22;;;;;;;16.48;3.38;;;;;;;;;;5013728;28;20423;-77
2023/09/08 12:42:50;;;;;;;15.70;3.40;;;;;;;;;;4986665;28;20419;-76
2023/09/08 12:45:25;;;;;;;17.80;3.47;;;;;;;;;;4979913;28;20424;-76
2023/09/08 12:47:59;;;;;;;16.15;3.50;;;;;;;;;;4988149;28;20491;-76
2023/09/08 12:50:27;;;;;;;16.10;3.27;;;;;;;;;;4977695;28;20414;-76
2023/09/08 12:52:53;;;;;;;16.60;3.33;;;;;;;;;;4990095;28;20463;-76
2023/09/08 12:55:22;;;;;;;17.10;3.50;;;;;;;;;;4986641;28;20414;-75
2023/09/08 12:57:49;;;;;;;16.10;3.90;;;;;;;;;;4990277;28;21037;-76
2023/09/08 13:00:16;;;;;;;16.60;3.60;;;;;;;;;;4986784;28;20460;-76
2023/09/08 13:02:44;;;;;;;16.42;3.60;;;;;;;;;;4973531;28;20404;-77
2023/09/08 13:05:11;;;;;;;17.43;3.50;;;;;;;;;;4974711;28;20430;-77
2023/09/08 13:07:37;;;;;;;20.02;4.07;;;;;;;;;;4972683;28;20511;-77
2023/09/08 13:10:06;;;;;;;17.42;3.78;;;;;;;;;;4973413;28;20482;-76
2023/09/08 13:12:34;;;;;;;16.05;3.63;;;;;;;;;;4983733;28;20412;-75
2023/09/08 13:15:01;;;;;;;16.70;3.30;;;;;;;;;;4978756;28;20430;-75
2023/09/08 13:17:27;;;;;;;16.40;3.70;;;;;;;;;;4991260;28;21014;-76
2023/09/08 13:19:54;;;;;;;17.27;3.45;;;;;;;;;;4987828;28;20411;-76
2023/09/08 13:22:22;;;;;;;15.98;3.72;;;;;;;;;;5004049;28;20416;-77
2023/09/08 13:24:50;;;;;;;15.17;3.40;;;;;;;;;;5008787;28;20278;-76
2023/09/08 13:27:18;;;;;;;;;;;;;;;;;;4993199;28;20289;-77
2023/09/08 13:29:45;;;;;;;;;;;;;;;;;;5008482;28;19921;-77
2023/09/08 13:32:14;;;;;;;15.80;3.40;;;;;;;;;;5013708;28;20264;-78
2023/09/08 13:34:43;;;;;;;17.00;3.60;;;;;;;;;;4993517;28;20481;-77
2023/09/08 13:37:10;;;;;;;17.00;3.53;;;;;;;;;;4987420;28;20814;-76
2023/09/08 13:39:37;;;;;;;16.10;3.55;;;;;;;;;;4993584;28;20433;-77
2023/09/08 13:42:04;;;;;;;16.20;3.40;;;;;;;;;;4993865;28;20431;-78
2023/09/08 13:44:34;;;;;;;17.60;3.90;;;;;;;;;;4982217;28;20467;-77
2023/09/08 13:47:01;;;;;;;15.70;3.20;;;;;;;;;;4977394;28;20552;-77
2023/09/08 13:49:30;;;;;;;17.40;3.80;;;;;;;;;;5009929;28;20439;-76
2023/09/08 13:51:58;;;;;;;16.92;3.25;;;;;;;;;;5009718;28;20455;-77
2023/09/08 13:54:29;;;;;;;16.52;3.75;;;;;;;;;;4993576;28;20414;-77
2023/09/08 13:57:00;;;;;;;17.25;3.38;;;;;;;;;;4990260;28;20416;-76
2023/09/08 13:59:28;;;;;;;17.00;3.67;;;;;;;;;;4975676;28;20435;-78
2023/09/08 14:02:06;;;;;;;17.13;4.10;;;;;;;;;;4982991;28;20461;-77
2023/09/08 14:04:54;;;;;;;16.80;3.63;;;;;;;;;;4952905;28;20944;-76
2023/09/08 14:07:28;;;;;;;19.17;3.78;;;;;;;;;;4953572;28;20875;-76
2023/09/08 14:10:07;;;;;;;17.60;3.22;;;;;;;;;;4963705;28;20444;-78
2023/09/08 14:12:53;;;;;;;16.92;3.60;;;;;;;;;;4965158;28;20813;-77
2023/09/08 14:15:19;;;;;;;19.80;3.40;;;;;;;;;;4956982;28;20416;-77
2023/09/08 14:17:48;;;;;;;16.20;3.50;;;;;;;;;;4950421;28;20485;-77
2023/09/08 14:20:16;;;;;;;16.90;3.30;;;;;;;;;;4976660;28;20934;-77
2023/09/08 14:22:43;;;;;;;16.10;3.30;;;;;;;;;;4956720;28;20519;-77
2023/09/08 14:25:10;;;;;;;16.42;3.60;;;;;;;;;;4965713;28;20480;-77
2023/09/08 14:27:36;;;;;;;15.73;3.53;;;;;;;;;;4937842;29;20433;-79
2023/09/08 14:30:04;;;;;;;15.75;3.33;;;;;;;;;;4972825;28;20423;-78
2023/09/08 14:32:31;;;;;;;16.73;3.10;;;;;;;;;;4992550;28;20934;-77
2023/09/08 14:34:58;;;;;;;15.98;3.75;;;;;;;;;;4982095;28;20869;-76
2023/09/08 14:37:26;;;;;;;16.80;3.28;;;;;;;;;;5021557;28;20521;-77
2023/09/08 14:39:52;;;;;;;17.60;3.60;;;;;;;;;;4990240;28;20406;-76
2023/09/08 14:42:19;;;;;;;16.63;3.63;;;;;;;;;;4981689;28;20939;-77
2023/09/08 14:44:46;;;;;;;15.90;3.10;;;;;;;;;;4989681;28;20546;-76
2023/09/08 14:47:13;;;;;;;16.75;3.50;;;;;;;;;;5015820;28;20527;-76
2023/09/08 14:49:40;;;;;;;15.70;3.50;;;;;;;;;;5011280;28;20426;-76
2023/09/08 14:52:06;;;;;;;16.25;3.67;;;;;;;;;;4978794;28;20905;-77
2023/09/08 14:54:35;;;;;;;16.30;3.40;;;;;;;;;;4979620;28;20927;-78
2023/09/08 14:57:03;;;;;;;15.85;3.60;;;;;;;;;;4989796;28;20435;-77
2023/09/08 14:59:30;;;;;;;17.45;3.60;;;;;;;;;;4986265;28;20911;-75
2023/09/08 15:01:57;;;;;;;16.00;3.42;;;;;;;;;;5013228;28;20410;-77